Time,TemperatureF,DewpointF,PressureIn,WindDirection,WindDirectionDegrees,WindSpeedMPH,WindSpeedGustMPH,Humidity,HourlyPrecipIn,Conditions,Clouds,dailyrainin,SoftwareType,DateUTC
2013-05-15 00:05:00,62.6,45.2,29.64,NNW,328,11.0,12.0,53,0.00,,,0.00,Wunderground v.1.15,2013-05-15 05:05:00,
2013-05-15 00:10:00,62.4,45.0,29.64,NNW,333,11.0,11.0,53,0.00,,,0.00,Wunderground v.1.15,2013-05-15 05:10:00,
2013-05-15 00:15:00,62.3,45.4,29.65,NNW,343,11.0,14.0,54,0.00,,,0.00,Wunderground v.1.15,2013-05-15 05:15:00,
2013-05-15 00:25:00,62.1,44.8,29.65,NNW,340,13.0,14.0,53,0.00,,,0.00,Wunderground v.1.15,2013-05-15 05:25:00,
2013-05-15 00:30:00,61.8,44.5,29.66,North,349,13.0,13.0,53,0.00,,,0.00,Wunderground v.1.15,2013-05-15 05:30:00,
2013-05-15 00:40:00,61.5,43.7,29.66,North,7,13.0,13.0,52,0.00,,,0.00,Wunderground v.1.15,2013-05-15 05:40:00,
2013-05-15 00:50:00,61.2,43.4,29.67,North,356,14.0,14.0,52,0.00,,,0.00,Wunderground v.1.15,2013-05-15 05:50:00,
2013-05-15 00:55:00,61.0,42.7,29.67,NNE,14,13.0,14.0,51,0.00,,,0.00,Wunderground v.1.15,2013-05-15 05:55:00,
2013-05-15 01:00:00,60.9,42.6,29.68,North,356,14.0,16.0,51,0.00,,,0.00,Wunderground v.1.15,2013-05-15 06:00:00,
2013-05-15 01:10:00,60.4,42.7,29.68,North,354,12.0,12.0,52,0.00,,,0.00,Wunderground v.1.15,2013-05-15 06:10:00,
2013-05-15 01:15:00,60.2,42.5,29.69,North,357,12.0,12.0,52,0.00,,,0.00,Wunderground v.1.15,2013-05-15 06:15:00,
2013-05-15 01:25:00,59.8,42.6,29.69,North,3,11.0,12.0,53,0.00,,,0.00,Wunderground v.1.15,2013-05-15 06:25:00,
2013-05-15 01:30:00,59.6,42.4,29.69,North,354,10.0,10.0,53,0.00,,,0.00,Wunderground v.1.15,2013-05-15 06:30:00,
2013-05-15 01:40:00,59.0,42.8,29.69,North,359,9.0,9.0,55,0.00,,,0.00,Wunderground v.1.15,2013-05-15 06:40:00,
2013-05-15 01:50:00,58.6,42.9,29.69,North,356,8.0,8.0,56,0.00,,,0.00,Wunderground v.1.15,2013-05-15 06:50:00,
2013-05-15 02:00:00,58.3,43.1,29.70,North,357,8.0,8.0,57,0.00,,,0.00,Wunderground v.1.15,2013-05-15 07:00:00,
2013-05-15 02:10:00,58.0,42.8,29.70,North,356,7.0,7.0,57,0.00,,,0.00,Wunderground v.1.15,2013-05-15 07:10:00,
2013-05-15 02:20:00,57.5,42.8,29.70,NNW,347,6.0,7.0,58,0.00,,,0.00,Wunderground v.1.15,2013-05-15 07:20:00,
2013-05-15 02:30:00,57.2,43.0,29.70,North,356,5.0,6.0,59,0.00,,,0.00,Wunderground v.1.15,2013-05-15 07:30:00,
2013-05-15 02:40:00,56.9,42.7,29.70,North,357,5.0,8.0,59,0.00,,,0.00,Wunderground v.1.15,2013-05-15 07:40:00,
2013-05-15 02:45:00,56.9,42.7,29.71,North,0,5.0,8.0,59,0.00,,,0.00,Wunderground v.1.15,2013-05-15 07:45:00,
2013-05-15 02:55:00,56.5,42.8,29.71,North,0,2.0,4.0,60,0.00,,,0.00,Wunderground v.1.15,2013-05-15 07:55:00,
2013-05-15 03:05:00,56.2,42.5,29.71,North,0,1.0,2.0,60,0.00,,,0.00,Wunderground v.1.15,2013-05-15 08:05:00,
2013-05-15 03:10:00,55.9,42.6,29.71,North,0,1.0,1.0,61,0.00,,,0.00,Wunderground v.1.15,2013-05-15 08:10:00,
2013-05-15 03:15:00,55.7,42.5,29.72,North,0,0.0,1.0,61,0.00,,,0.00,Wunderground v.1.15,2013-05-15 08:15:00,
2013-05-15 03:25:00,55.1,42.3,29.72,North,0,0.0,1.0,62,0.00,,,0.00,Wunderground v.1.15,2013-05-15 08:25:00,
2013-05-15 03:30:00,55.0,42.6,29.72,North,0,0.0,0.0,63,0.00,,,0.00,Wunderground v.1.15,2013-05-15 08:30:00,
2013-05-15 03:40:00,54.8,42.4,29.72,North,356,0.0,0.0,63,0.00,,,0.00,Wunderground v.1.15,2013-05-15 08:40:00,
2013-05-15 03:50:00,54.7,42.3,29.72,North,359,0.0,0.0,63,0.00,,,0.00,Wunderground v.1.15,2013-05-15 08:50:00,
2013-05-15 03:55:00,54.5,42.2,29.72,North,359,1.0,1.0,63,0.00,,,0.00,Wunderground v.1.15,2013-05-15 08:55:00,
2013-05-15 04:00:00,54.4,42.5,29.73,North,359,1.0,1.0,64,0.00,,,0.00,Wunderground v.1.15,2013-05-15 09:00:00,
2013-05-15 04:10:00,54.1,42.2,29.73,North,359,0.0,0.0,64,0.00,,,0.00,Wunderground v.1.15,2013-05-15 09:10:00,
2013-05-15 04:20:00,53.8,42.3,29.73,North,359,0.0,0.0,65,0.00,,,0.00,Wunderground v.1.15,2013-05-15 09:20:00,
2013-05-15 04:25:00,53.6,42.1,29.73,North,359,0.0,0.0,65,0.00,,,0.00,Wunderground v.1.15,2013-05-15 09:25:00,
2013-05-15 04:35:00,53.2,41.7,29.74,North,359,0.0,0.0,65,0.00,,,0.00,Wunderground v.1.15,2013-05-15 09:35:00,
2013-05-15 04:45:00,52.6,41.6,29.73,North,359,0.0,0.0,66,0.00,,,0.00,Wunderground v.1.15,2013-05-15 09:45:00,
2013-05-15 04:55:00,52.2,42.0,29.73,North,359,0.0,0.0,68,0.00,,,0.00,Wunderground v.1.15,2013-05-15 09:55:00,
2013-05-15 05:05:00,52.0,42.1,29.75,North,357,0.0,0.0,69,0.00,,,0.00,Wunderground v.1.15,2013-05-15 10:05:00,
2013-05-15 05:15:00,51.6,42.1,29.77,North,357,0.0,0.0,70,0.00,,,0.00,Wunderground v.1.15,2013-05-15 10:15:00,
2013-05-15 05:25:00,51.3,42.2,29.77,North,357,0.0,1.0,71,0.00,,,0.00,Wunderground v.1.15,2013-05-15 10:25:00,
2013-05-15 05:30:00,51.3,42.2,29.78,North,357,0.0,0.0,71,0.00,,,0.00,Wunderground v.1.15,2013-05-15 10:30:00,
2013-05-15 05:40:00,50.8,42.1,29.78,North,357,0.0,0.0,72,0.00,,,0.00,Wunderground v.1.15,2013-05-15 10:40:00,
2013-05-15 05:50:00,50.4,41.7,29.79,NNW,346,0.0,0.0,72,0.00,,,0.00,Wunderground v.1.15,2013-05-15 10:50:00,
2013-05-15 06:00:00,49.9,41.6,29.79,NNW,346,0.0,0.0,73,0.00,,,0.00,Wunderground v.1.15,2013-05-15 11:00:00,
2013-05-15 06:10:00,49.8,41.8,29.79,NNW,346,0.0,0.0,74,0.00,,,0.00,Wunderground v.1.15,2013-05-15 11:10:00,
2013-05-15 06:30:00,49.9,41.9,29.83,NNW,330,0.0,0.0,74,0.00,,,0.00,Wunderground v.1.15,2013-05-15 11:30:00,
2013-05-15 06:35:00,50.1,42.1,29.83,NNW,330,0.0,1.0,74,0.00,,,0.00,Wunderground v.1.15,2013-05-15 11:35:00,
2013-05-15 06:45:00,51.1,43.1,29.84,NNW,329,0.0,0.0,74,0.00,,,0.00,Wunderground v.1.15,2013-05-15 11:45:00,
2013-05-15 06:55:00,52.2,43.8,29.84,NNW,329,0.0,2.0,73,0.00,,,0.00,Wunderground v.1.15,2013-05-15 11:55:00,
2013-05-15 07:05:00,52.6,43.5,29.84,NNW,329,0.0,0.0,71,0.00,,,0.00,Wunderground v.1.15,2013-05-15 12:05:00,
2013-05-15 07:15:00,52.9,43.7,29.84,NNW,329,0.0,0.0,71,0.00,,,0.00,Wunderground v.1.15,2013-05-15 12:15:00,
2013-05-15 07:25:00,52.9,43.7,29.84,NNW,329,0.0,0.0,71,0.00,,,0.00,Wunderground v.1.15,2013-05-15 12:25:00,
2013-05-15 07:30:00,53.2,43.7,29.83,NNW,329,0.0,0.0,70,0.00,,,0.00,Wunderground v.1.15,2013-05-15 12:30:00,
2013-05-15 07:40:00,53.6,44.4,29.83,NNW,329,0.0,0.0,71,0.00,,,0.00,Wunderground v.1.15,2013-05-15 12:40:00,
2013-05-15 07:50:00,54.2,45.0,29.83,NNW,329,0.0,0.0,71,0.00,,,0.00,Wunderground v.1.15,2013-05-15 12:50:00,
2013-05-15 08:00:00,55.0,45.4,29.82,NNW,329,0.0,0.0,70,0.00,,,0.00,Wunderground v.1.15,2013-05-15 13:00:00,
2013-05-15 08:10:00,55.7,45.3,29.82,NNW,329,0.0,0.0,68,0.00,,,0.00,Wunderground v.1.15,2013-05-15 13:10:00,
2013-05-15 08:15:00,56.0,45.2,29.82,NNW,329,0.0,0.0,67,0.00,,,0.00,Wunderground v.1.15,2013-05-15 13:15:00,
2013-05-15 08:25:00,56.5,45.3,29.82,NNW,329,0.0,0.0,66,0.00,,,0.00,Wunderground v.1.15,2013-05-15 13:25:00,
2013-05-15 08:35:00,56.7,45.5,29.82,NNW,329,0.0,0.0,66,0.00,,,0.00,Wunderground v.1.15,2013-05-15 13:35:00,
2013-05-15 08:45:00,57.3,45.2,29.81,NNW,329,0.0,0.0,64,0.00,,,0.00,Wunderground v.1.15,2013-05-15 13:45:00,
2013-05-15 08:55:00,57.6,45.5,29.81,NNW,329,0.0,0.0,64,0.00,,,0.00,Wunderground v.1.15,2013-05-15 13:55:00,
2013-05-15 09:15:00,58.7,46.1,29.82,NNW,329,0.0,0.0,63,0.00,,,0.00,Wunderground v.1.15,2013-05-15 14:15:00,
2013-05-15 09:20:00,59.2,46.2,29.82,NNW,329,0.0,0.0,62,0.00,,,0.00,Wunderground v.1.15,2013-05-15 14:20:00,
2013-05-15 09:35:00,60.4,46.0,29.83,NNW,329,0.0,0.0,59,0.00,,,0.00,Wunderground v.1.15,2013-05-15 14:35:00,
2013-05-15 09:40:00,61.0,45.7,29.83,NNW,329,0.0,0.0,57,0.00,,,0.00,Wunderground v.1.15,2013-05-15 14:40:00,
2013-05-15 09:50:00,62.6,45.7,29.82,WSW,258,1.0,1.0,54,0.00,,,0.00,Wunderground v.1.15,2013-05-15 14:50:00,
2013-05-15 10:00:00,62.9,46.5,29.82,WSW,258,0.0,2.0,55,0.00,,,0.00,Wunderground v.1.15,2013-05-15 15:00:00,
2013-05-15 10:05:00,63.1,46.7,29.82,WSW,257,0.0,2.0,55,0.00,,,0.00,Wunderground v.1.15,2013-05-15 15:05:00,
2013-05-15 10:15:00,63.5,46.1,29.83,WSW,257,1.0,4.0,53,0.00,,,0.00,Wunderground v.1.15,2013-05-15 15:15:00,
2013-05-15 10:25:00,63.9,44.9,29.83,WSW,248,2.0,2.0,50,0.00,,,0.00,Wunderground v.1.15,2013-05-15 15:25:00,
2013-05-15 10:30:00,64.5,42.1,29.82,WSW,248,2.0,4.0,44,0.00,,,0.00,Wunderground v.1.15,2013-05-15 15:30:00,
2013-05-15 10:40:00,66.3,42.5,29.82,WSW,254,3.0,4.0,42,0.00,,,0.00,Wunderground v.1.15,2013-05-15 15:40:00,
2013-05-15 10:55:00,67.1,43.2,29.82,WSW,246,4.0,7.0,42,0.00,,,0.00,Wunderground v.1.15,2013-05-15 15:55:00,
2013-05-15 11:10:00,67.1,43.2,29.82,WSW,246,6.0,11.0,42,0.00,,,0.00,Wunderground v.1.15,2013-05-15 16:10:00,
2013-05-15 11:25:00,67.9,43.3,29.83,West,268,7.0,7.0,41,0.00,,,0.00,Wunderground v.1.15,2013-05-15 16:25:00,
2013-05-15 11:35:00,68.4,43.8,29.83,WSW,251,6.0,10.0,41,0.00,,,0.00,Wunderground v.1.15,2013-05-15 16:35:00,
2013-05-15 11:45:00,67.8,44.5,29.82,WSW,246,8.0,9.0,43,0.00,,,0.00,Wunderground v.1.15,2013-05-15 16:45:00,
2013-05-15 11:55:00,68.9,44.9,29.82,WSW,256,5.0,11.0,42,0.00,,,0.00,Wunderground v.1.15,2013-05-15 16:55:00,
2013-05-15 12:00:00,68.9,43.6,29.82,SW,230,5.0,5.0,40,0.00,,,0.00,Wunderground v.1.15,2013-05-15 17:00:00,
2013-05-15 12:20:00,70.3,44.8,29.82,WSW,251,7.0,7.0,40,0.00,,,0.00,Wunderground v.1.15,2013-05-15 17:20:00,
2013-05-15 12:25:00,70.9,44.7,29.82,WSW,251,5.0,7.0,39,0.00,,,0.00,Wunderground v.1.15,2013-05-15 17:25:00,
2013-05-15 12:30:00,71.5,43.8,29.81,West,268,5.0,5.0,37,0.00,,,0.00,Wunderground v.1.15,2013-05-15 17:30:00,
2013-05-15 12:40:00,72.5,44.7,29.81,West,281,4.0,6.0,37,0.00,,,0.00,Wunderground v.1.15,2013-05-15 17:40:00,
2013-05-15 12:55:00,74.2,44.8,29.80,West,271,5.0,5.0,35,0.00,,,0.00,Wunderground v.1.15,2013-05-15 17:55:00,
2013-05-15 13:05:00,74.9,43.8,29.79,SW,216,4.0,10.0,33,0.00,,,0.00,Wunderground v.1.15,2013-05-15 18:05:00,
2013-05-15 13:15:00,74.6,42.0,29.79,NW,311,5.0,6.0,31,0.00,,,0.00,Wunderground v.1.15,2013-05-15 18:15:00,
2013-05-15 13:25:00,75.3,39.9,29.79,West,277,4.0,4.0,28,0.00,,,0.00,Wunderground v.1.15,2013-05-15 18:25:00,
2013-05-15 13:30:00,75.4,42.7,29.79,West,268,4.0,7.0,31,0.00,,,0.00,Wunderground v.1.15,2013-05-15 18:30:00,
2013-05-15 13:40:00,75.8,41.3,29.79,NNW,332,5.0,5.0,29,0.00,,,0.00,Wunderground v.1.15,2013-05-15 18:40:00,
2013-05-15 13:45:00,75.8,41.3,29.78,NW,308,4.0,7.0,29,0.00,,,0.00,Wunderground v.1.15,2013-05-15 18:45:00,
2013-05-15 13:55:00,76.7,41.1,29.78,West,280,7.0,7.0,28,0.00,,,0.00,Wunderground v.1.15,2013-05-15 18:55:00,
2013-05-15 14:00:00,76.8,41.2,29.77,WSW,258,5.0,10.0,28,0.00,,,0.00,Wunderground v.1.15,2013-05-15 19:00:00,
2013-05-15 14:10:00,77.0,41.4,29.77,NNW,346,4.0,4.0,28,0.00,,,0.00,Wunderground v.1.15,2013-05-15 19:10:00,
2013-05-15 14:20:00,77.0,43.2,29.77,WSW,246,6.0,10.0,30,0.00,,,0.00,Wunderground v.1.15,2013-05-15 19:20:00,
2013-05-15 14:25:00,76.5,44.4,29.77,SW,236,7.0,10.0,32,0.00,,,0.00,Wunderground v.1.15,2013-05-15 19:25:00,
2013-05-15 14:30:00,76.8,43.0,29.76,West,275,5.0,5.0,30,0.00,,,0.00,Wunderground v.1.15,2013-05-15 19:30:00,
2013-05-15 14:40:00,76.8,41.2,29.76,West,278,4.0,4.0,28,0.00,,,0.00,Wunderground v.1.15,2013-05-15 19:40:00,
2013-05-15 14:50:00,78.1,42.3,29.76,NW,311,6.0,9.0,28,0.00,,,0.00,Wunderground v.1.15,2013-05-15 19:50:00,
2013-05-15 14:55:00,78.6,42.8,29.76,NW,322,7.0,9.0,28,0.00,,,0.00,Wunderground v.1.15,2013-05-15 19:55:00,
2013-05-15 15:00:00,78.8,42.0,29.76,West,268,6.0,9.0,27,0.00,,,0.00,Wunderground v.1.15,2013-05-15 20:00:00,
2013-05-15 15:15:00,78.3,41.6,29.76,NW,305,5.0,7.0,27,0.00,,,0.00,Wunderground v.1.15,2013-05-15 20:15:00,
2013-05-15 15:25:00,78.6,40.8,29.76,NNW,339,6.0,6.0,26,0.00,,,0.00,Wunderground v.1.15,2013-05-15 20:25:00,
2013-05-15 15:30:00,78.8,41.0,29.75,North,357,6.0,6.0,26,0.00,,,0.00,Wunderground v.1.15,2013-05-15 20:30:00,
2013-05-15 15:40:00,78.1,40.4,29.75,NW,326,6.0,8.0,26,0.00,,,0.00,Wunderground v.1.15,2013-05-15 20:40:00,
2013-05-15 15:50:00,77.7,39.1,29.74,NNW,332,6.0,8.0,25,0.00,,,0.00,Wunderground v.1.15,2013-05-15 20:50:00,
2013-05-15 15:55:00,78.5,38.7,29.74,NNW,330,4.0,8.0,24,0.00,,,0.00,Wunderground v.1.15,2013-05-15 20:55:00,
2013-05-15 16:05:00,78.6,37.7,29.74,NW,323,4.0,6.0,23,0.00,,,0.00,Wunderground v.1.15,2013-05-15 21:05:00,
2013-05-15 16:10:00,78.8,36.7,29.74,WNW,282,5.0,7.0,22,0.00,,,0.00,Wunderground v.1.15,2013-05-15 21:10:00,
2013-05-15 16:20:00,78.6,37.7,29.74,WNW,284,6.0,6.0,23,0.00,,,0.00,Wunderground v.1.15,2013-05-15 21:20:00,
2013-05-15 16:30:00,79.9,37.6,29.74,WNW,287,5.0,6.0,22,0.00,,,0.00,Wunderground v.1.15,2013-05-15 21:30:00,
2013-05-15 16:45:00,80.1,37.8,29.74,NW,326,6.0,8.0,22,0.00,,,0.00,Wunderground v.1.15,2013-05-15 21:45:00,
2013-05-15 16:50:00,80.3,36.8,29.74,NW,320,6.0,6.0,21,0.00,,,0.00,Wunderground v.1.15,2013-05-15 21:50:00,
2013-05-15 17:00:00,80.1,38.9,29.74,West,281,6.0,6.0,23,0.00,,,0.00,Wunderground v.1.15,2013-05-15 22:00:00,
2013-05-15 17:15:00,79.8,38.7,29.74,West,272,4.0,6.0,23,0.00,,,0.00,Wunderground v.1.15,2013-05-15 22:15:00,
2013-05-15 17:40:00,79.4,38.4,29.74,WNW,301,4.0,4.0,23,0.00,,,0.00,Wunderground v.1.15,2013-05-15 22:40:00,
2013-05-15 17:45:00,79.6,38.5,29.74,NW,323,4.0,7.0,23,0.00,,,0.00,Wunderground v.1.15,2013-05-15 22:45:00,
2013-05-15 17:55:00,78.8,37.9,29.74,WNW,295,4.0,8.0,23,0.00,,,0.00,Wunderground v.1.15,2013-05-15 22:55:00,
2013-05-15 18:05:00,78.6,38.8,29.74,NNW,344,2.0,2.0,24,0.00,,,0.00,Wunderground v.1.15,2013-05-15 23:05:00,
2013-05-15 18:15:00,78.3,37.4,29.73,NW,320,5.0,6.0,23,0.00,,,0.00,Wunderground v.1.15,2013-05-15 23:15:00,
2013-05-15 18:30:00,78.5,38.7,29.73,NW,319,4.0,4.0,24,0.00,,,0.00,Wunderground v.1.15,2013-05-15 23:30:00,
2013-05-15 18:40:00,79.0,39.1,29.73,NNW,329,4.0,6.0,24,0.00,,,0.00,Wunderground v.1.15,2013-05-15 23:40:00,
2013-05-15 18:50:00,79.2,38.2,29.73,WNW,288,3.0,4.0,23,0.00,,,0.00,Wunderground v.1.15,2013-05-15 23:50:00,
2013-05-15 19:00:00,78.6,38.8,29.73,WNW,302,3.0,3.0,24,0.00,,,0.00,Wunderground v.1.15,2013-05-16 00:00:00,
2013-05-15 19:15:00,76.8,39.3,29.73,WNW,282,2.0,2.0,26,0.00,,,0.00,Wunderground v.1.15,2013-05-16 00:15:00,
2013-05-15 19:20:00,76.5,40.0,29.73,West,265,2.0,2.0,27,0.00,,,0.00,Wunderground v.1.15,2013-05-16 00:20:00,
2013-05-15 19:30:00,76.1,40.6,29.73,NW,325,1.0,1.0,28,0.00,,,0.00,Wunderground v.1.15,2013-05-16 00:30:00,
2013-05-15 19:40:00,76.0,40.5,29.73,NW,325,0.0,2.0,28,0.00,,,0.00,Wunderground v.1.15,2013-05-16 00:40:00,
2013-05-15 19:45:00,75.8,40.4,29.73,NW,325,1.0,2.0,28,0.00,,,0.00,Wunderground v.1.15,2013-05-16 00:45:00,
2013-05-15 19:55:00,75.3,41.7,29.73,NW,325,0.0,1.0,30,0.00,,,0.00,Wunderground v.1.15,2013-05-16 00:55:00,
2013-05-15 20:05:00,74.6,42.0,29.73,NW,325,0.0,0.0,31,0.00,,,0.00,Wunderground v.1.15,2013-05-16 01:05:00,
2013-05-15 20:15:00,74.0,41.4,29.73,NW,325,1.0,1.0,31,0.00,,,0.00,Wunderground v.1.15,2013-05-16 01:15:00,
2013-05-15 20:25:00,73.3,42.4,29.73,NW,325,0.0,1.0,33,0.00,,,0.00,Wunderground v.1.15,2013-05-16 01:25:00,
2013-05-15 20:35:00,72.8,42.8,29.73,NW,325,0.0,0.0,34,0.00,,,0.00,Wunderground v.1.15,2013-05-16 01:35:00,
2013-05-15 20:45:00,72.0,43.6,29.73,WNW,292,1.0,1.0,36,0.00,,,0.00,Wunderground v.1.15,2013-05-16 01:45:00,
2013-05-15 20:55:00,71.1,43.5,29.73,WNW,292,0.0,1.0,37,0.00,,,0.00,Wunderground v.1.15,2013-05-16 01:55:00,
2013-05-15 21:00:00,70.9,43.3,29.74,WNW,292,1.0,1.0,37,0.00,,,0.00,Wunderground v.1.15,2013-05-16 02:00:00,
2013-05-15 21:10:00,70.4,43.6,29.74,WNW,292,1.0,1.0,38,0.00,,,0.00,Wunderground v.1.15,2013-05-16 02:10:00,
2013-05-15 21:20:00,70.1,44.0,29.74,WNW,285,2.0,6.0,39,0.00,,,0.00,Wunderground v.1.15,2013-05-16 02:20:00,
2013-05-15 21:30:00,69.8,43.7,29.74,West,278,3.0,4.0,39,0.00,,,0.00,Wunderground v.1.15,2013-05-16 02:30:00,
2013-05-15 21:40:00,69.4,44.0,29.74,WSW,257,2.0,2.0,40,0.00,,,0.00,Wunderground v.1.15,2013-05-16 02:40:00,
2013-05-15 21:50:00,68.8,44.1,29.74,WSW,257,2.0,2.0,41,0.00,,,0.00,Wunderground v.1.15,2013-05-16 02:50:00,
2013-05-15 21:55:00,68.6,43.3,29.74,WSW,257,2.0,2.0,40,0.00,,,0.00,Wunderground v.1.15,2013-05-16 02:55:00,
2013-05-15 22:00:00,68.4,43.8,29.74,WSW,256,2.0,2.0,41,0.00,,,0.00,Wunderground v.1.15,2013-05-16 03:00:00,
2013-05-15 22:10:00,68.1,43.5,29.74,WSW,243,3.0,3.0,41,0.00,,,0.00,Wunderground v.1.15,2013-05-16 03:10:00,
2013-05-15 22:15:00,67.9,43.3,29.74,WSW,243,2.0,3.0,41,0.00,,,0.00,Wunderground v.1.15,2013-05-16 03:15:00,
2013-05-15 22:25:00,67.6,43.7,29.74,WSW,243,3.0,3.0,42,0.00,,,0.00,Wunderground v.1.15,2013-05-16 03:25:00,
2013-05-15 22:30:00,67.4,43.5,29.74,WSW,243,3.0,4.0,42,0.00,,,0.00,Wunderground v.1.15,2013-05-16 03:30:00,
2013-05-15 22:40:00,67.1,43.2,29.74,WSW,244,3.0,3.0,42,0.00,,,0.00,Wunderground v.1.15,2013-05-16 03:40:00,
2013-05-15 22:45:00,67.1,43.2,29.74,WSW,240,2.0,3.0,42,0.00,,,0.00,Wunderground v.1.15,2013-05-16 03:45:00,
2013-05-15 22:55:00,66.6,43.4,29.74,WSW,246,3.0,7.0,43,0.00,,,0.00,Wunderground v.1.15,2013-05-16 03:55:00,
2013-05-15 23:05:00,66.3,43.7,29.75,WSW,247,4.0,4.0,44,0.00,,,0.00,Wunderground v.1.15,2013-05-16 04:05:00,
2013-05-15 23:15:00,65.5,44.2,29.75,WSW,247,2.0,3.0,46,0.00,,,0.00,Wunderground v.1.15,2013-05-16 04:15:00,
2013-05-15 23:25:00,64.5,43.8,29.75,WSW,247,1.0,1.0,47,0.00,,,0.00,Wunderground v.1.15,2013-05-16 04:25:00,
2013-05-15 23:30:00,64.0,43.4,29.76,WSW,247,1.0,2.0,47,0.00,,,0.00,Wunderground v.1.15,2013-05-16 04:30:00,
2013-05-15 23:35:00,63.9,43.8,29.76,WSW,247,2.0,2.0,48,0.00,,,0.00,Wunderground v.1.15,2013-05-16 04:35:00,
2013-05-15 23:45:00,63.7,43.6,29.76,WSW,247,3.0,4.0,48,0.00,,,0.00,Wunderground v.1.15,2013-05-16 04:45:00,
2013-05-15 23:55:00,63.5,43.4,29.76,SW,234,4.0,6.0,48,0.00,,,0.00,Wunderground v.1.15,2013-05-16 04:55:00,